sensor_id;sensor_type;location;lat;lon;timestamp;P1;durP1;ratioP1;P2;durP2;ratioP2
74957;SDS011;63741;42.624;26.276;2022-12-11T00:00:28;17.85;;;6.57;;
74957;SDS011;63741;42.624;26.276;2022-12-11T00:02:55;25.42;;;7.40;;
74957;SDS011;63741;42.624;26.276;2022-12-11T00:05:23;25.45;;;9.35;;
74957;SDS011;63741;42.624;26.276;2022-12-11T00:07:49;23.00;;;7.78;;
74957;SDS011;63741;42.624;26.276;2022-12-11T00:10:16;22.75;;;8.10;;
74957;SDS011;63741;42.624;26.276;2022-12-11T00:12:43;23.77;;;6.63;;
74957;SDS011;63741;42.624;26.276;2022-12-11T00:15:10;20.30;;;7.22;;
74957;SDS011;63741;42.624;26.276;2022-12-11T00:17:38;25.98;;;8.88;;
74957;SDS011;63741;42.624;26.276;2022-12-11T00:20:05;26.83;;;9.35;;
74957;SDS011;63741;42.624;26.276;2022-12-11T00:22:33;26.70;;;8.57;;
74957;SDS011;63741;42.624;26.276;2022-12-11T00:25:00;27.20;;;10.02;;
74957;SDS011;63741;42.624;26.276;2022-12-11T00:27:27;23.00;;;9.02;;
74957;SDS011;63741;42.624;26.276;2022-12-11T00:29:54;27.25;;;10.95;;
74957;SDS011;63741;42.624;26.276;2022-12-11T00:32:21;32.67;;;14.18;;
74957;SDS011;63741;42.624;26.276;2022-12-11T00:34:48;30.20;;;14.57;;
74957;SDS011;63741;42.624;26.276;2022-12-11T00:37:15;23.08;;;9.48;;
74957;SDS011;63741;42.624;26.276;2022-12-11T00:39:41;20.88;;;8.70;;
74957;SDS011;63741;42.624;26.276;2022-12-11T00:42:08;19.88;;;7.13;;
74957;SDS011;63741;42.624;26.276;2022-12-11T00:44:35;23.17;;;6.07;;
74957;SDS011;63741;42.624;26.276;2022-12-11T00:47:02;19.98;;;5.00;;
74957;SDS011;63741;42.624;26.276;2022-12-11T00:49:29;18.55;;;5.78;;
74957;SDS011;63741;42.624;26.276;2022-12-11T00:51:56;15.10;;;5.07;;
74957;SDS011;63741;42.624;26.276;2022-12-11T00:54:23;16.55;;;5.65;;
74957;SDS011;63741;42.624;26.276;2022-12-11T00:56:50;23.40;;;5.93;;
74957;SDS011;63741;42.624;26.276;2022-12-11T00:59:18;21.45;;;8.23;;
74957;SDS011;63741;42.624;26.276;2022-12-11T01:01:45;22.90;;;8.27;;
74957;SDS011;63741;42.624;26.276;2022-12-11T01:04:12;17.13;;;7.15;;
74957;SDS011;63741;42.624;26.276;2022-12-11T01:06:39;16.25;;;4.70;;
74957;SDS011;63741;42.624;26.276;2022-12-11T01:09:06;14.95;;;6.00;;
74957;SDS011;63741;42.624;26.276;2022-12-11T01:11:51;25.77;;;10.70;;
74957;SDS011;63741;42.624;26.276;2022-12-11T01:14:18;15.95;;;4.75;;
74957;SDS011;63741;42.624;26.276;2022-12-11T01:16:45;19.70;;;7.45;;
74957;SDS011;63741;42.624;26.276;2022-12-11T01:19:12;26.65;;;9.30;;
74957;SDS011;63741;42.624;26.276;2022-12-11T01:21:39;25.08;;;9.80;;
74957;SDS011;63741;42.624;26.276;2022-12-11T01:24:06;26.98;;;7.47;;
74957;SDS011;63741;42.624;26.276;2022-12-11T01:26:33;17.05;;;5.30;;
74957;SDS011;63741;42.624;26.276;2022-12-11T01:29:00;21.75;;;6.07;;
74957;SDS011;63741;42.624;26.276;2022-12-11T01:31:27;25.65;;;7.65;;
74957;SDS011;63741;42.624;26.276;2022-12-11T01:33:55;30.02;;;11.50;;
74957;SDS011;63741;42.624;26.276;2022-12-11T01:36:22;26.42;;;9.25;;
74957;SDS011;63741;42.624;26.276;2022-12-11T01:38:49;31.38;;;9.95;;
74957;SDS011;63741;42.624;26.276;2022-12-11T01:41:16;31.63;;;9.48;;
74957;SDS011;63741;42.624;26.276;2022-12-11T01:44:00;22.15;;;6.95;;
74957;SDS011;63741;42.624;26.276;2022-12-11T01:46:34;31.23;;;8.05;;
74957;SDS011;63741;42.624;26.276;2022-12-11T01:49:02;22.85;;;7.82;;
74957;SDS011;63741;42.624;26.276;2022-12-11T01:51:34;26.25;;;11.23;;
74957;SDS011;63741;42.624;26.276;2022-12-11T01:54:09;36.83;;;13.63;;
74957;SDS011;63741;42.624;26.276;2022-12-11T01:56:39;30.15;;;10.15;;
74957;SDS011;63741;42.624;26.276;2022-12-11T01:59:09;22.20;;;5.30;;
74957;SDS011;63741;42.624;26.276;2022-12-11T02:04:48;28.15;;;5.97;;
74957;SDS011;63741;42.624;26.276;2022-12-11T02:07:15;33.35;;;10.48;;
74957;SDS011;63741;42.624;26.276;2022-12-11T02:09:42;21.27;;;4.72;;
74957;SDS011;63741;42.624;26.276;2022-12-11T02:12:33;21.17;;;5.38;;
74957;SDS011;63741;42.624;26.276;2022-12-11T02:15:19;23.55;;;4.70;;
74957;SDS011;63741;42.624;26.276;2022-12-11T02:29:19;24.17;;;4.50;;
74957;SDS011;63741;42.624;26.276;2022-12-11T02:31:56;19.00;;;4.30;;
74957;SDS011;63741;42.624;26.276;2022-12-11T02:34:38;23.88;;;4.60;;
74957;SDS011;63741;42.624;26.276;2022-12-11T02:37:11;19.77;;;4.10;;
74957;SDS011;63741;42.624;26.276;2022-12-11T02:39:44;22.30;;;4.40;;
74957;SDS011;63741;42.624;26.276;2022-12-11T02:42:14;18.90;;;3.83;;
74957;SDS011;63741;42.624;26.276;2022-12-11T02:44:42;17.63;;;4.20;;
74957;SDS011;63741;42.624;26.276;2022-12-11T02:47:12;19.40;;;3.90;;
74957;SDS011;63741;42.624;26.276;2022-12-11T02:49:42;16.67;;;4.00;;
74957;SDS011;63741;42.624;26.276;2022-12-11T02:52:13;21.98;;;4.57;;
74957;SDS011;63741;42.624;26.276;2022-12-11T02:54:43;22.27;;;3.47;;
74957;SDS011;63741;42.624;26.276;2022-12-11T02:57:23;22.52;;;4.07;;
74957;SDS011;63741;42.624;26.276;2022-12-11T02:59:51;19.23;;;3.47;;
74957;SDS011;63741;42.624;26.276;2022-12-11T03:02:18;20.38;;;3.80;;
74957;SDS011;63741;42.624;26.276;2022-12-11T03:04:45;21.63;;;3.90;;
74957;SDS011;63741;42.624;26.276;2022-12-11T03:07:14;16.08;;;3.38;;
74957;SDS011;63741;42.624;26.276;2022-12-11T03:09:49;17.60;;;3.85;;
74957;SDS011;63741;42.624;26.276;2022-12-11T03:12:20;23.23;;;3.70;;
74957;SDS011;63741;42.624;26.276;2022-12-11T03:14:54;20.77;;;3.60;;
74957;SDS011;63741;42.624;26.276;2022-12-11T03:17:34;20.63;;;4.57;;
74957;SDS011;63741;42.624;26.276;2022-12-11T03:22:51;23.83;;;4.40;;
74957;SDS011;63741;42.624;26.276;2022-12-11T03:30:18;20.85;;;4.45;;
74957;SDS011;63741;42.624;26.276;2022-12-11T03:32:49;21.70;;;5.22;;
74957;SDS011;63741;42.624;26.276;2022-12-11T03:37:53;20.75;;;5.78;;
74957;SDS011;63741;42.624;26.276;2022-12-11T03:40:22;27.83;;;5.90;;
74957;SDS011;63741;42.624;26.276;2022-12-11T03:42:51;30.67;;;6.00;;
74957;SDS011;63741;42.624;26.276;2022-12-11T03:45:22;34.15;;;6.53;;
74957;SDS011;63741;42.624;26.276;2022-12-11T03:47:51;19.10;;;5.13;;
74957;SDS011;63741;42.624;26.276;2022-12-11T03:50:21;22.05;;;5.28;;
74957;SDS011;63741;42.624;26.276;2022-12-11T03:52:51;24.60;;;5.63;;
74957;SDS011;63741;42.624;26.276;2022-12-11T03:55:20;24.17;;;5.50;;
74957;SDS011;63741;42.624;26.276;2022-12-11T03:57:48;23.38;;;5.20;;
74957;SDS011;63741;42.624;26.276;2022-12-11T04:00:17;24.92;;;5.45;;
74957;SDS011;63741;42.624;26.276;2022-12-11T04:02:45;27.70;;;6.18;;
74957;SDS011;63741;42.624;26.276;2022-12-11T04:05:39;27.13;;;5.72;;
74957;SDS011;63741;42.624;26.276;2022-12-11T04:08:09;25.63;;;5.72;;
74957;SDS011;63741;42.624;26.276;2022-12-11T04:10:36;26.65;;;5.88;;
74957;SDS011;63741;42.624;26.276;2022-12-11T04:13:04;25.63;;;5.28;;
74957;SDS011;63741;42.624;26.276;2022-12-11T04:15:31;22.67;;;5.32;;
74957;SDS011;63741;42.624;26.276;2022-12-11T04:17:58;20.40;;;4.78;;
74957;SDS011;63741;42.624;26.276;2022-12-11T04:20:43;17.50;;;4.93;;
74957;SDS011;63741;42.624;26.276;2022-12-11T04:23:29;21.50;;;4.88;;
74957;SDS011;63741;42.624;26.276;2022-12-11T04:26:15;23.05;;;4.95;;
74957;SDS011;63741;42.624;26.276;2022-12-11T04:28:44;24.40;;;5.25;;
74957;SDS011;63741;42.624;26.276;2022-12-11T04:31:19;23.35;;;5.18;;
74957;SDS011;63741;42.624;26.276;2022-12-11T04:33:48;21.67;;;4.85;;
74957;SDS011;63741;42.624;26.276;2022-12-11T04:36:14;24.70;;;4.90;;
74957;SDS011;63741;42.624;26.276;2022-12-11T04:38:42;17.98;;;4.43;;
74957;SDS011;63741;42.624;26.276;2022-12-11T04:41:10;18.42;;;4.72;;
74957;SDS011;63741;42.624;26.276;2022-12-11T04:43:39;18.05;;;4.40;;
74957;SDS011;63741;42.624;26.276;2022-12-11T04:46:08;15.93;;;4.60;;
74957;SDS011;63741;42.624;26.276;2022-12-11T04:51:05;14.18;;;4.55;;
74957;SDS011;63741;42.624;26.276;2022-12-11T04:53:33;16.52;;;4.13;;
74957;SDS011;63741;42.624;26.276;2022-12-11T04:56:00;21.27;;;4.10;;
74957;SDS011;63741;42.624;26.276;2022-12-11T04:58:31;20.27;;;4.13;;
74957;SDS011;63741;42.624;26.276;2022-12-11T05:00:58;17.17;;;4.63;;
74957;SDS011;63741;42.624;26.276;2022-12-11T05:03:25;27.45;;;8.00;;
74957;SDS011;63741;42.624;26.276;2022-12-11T05:05:52;26.42;;;6.75;;
74957;SDS011;63741;42.624;26.276;2022-12-11T05:08:19;22.48;;;7.18;;
74957;SDS011;63741;42.624;26.276;2022-12-11T05:11:03;19.88;;;6.05;;
74957;SDS011;63741;42.624;26.276;2022-12-11T05:13:32;20.17;;;4.70;;
74957;SDS011;63741;42.624;26.276;2022-12-11T05:15:59;18.75;;;4.45;;
74957;SDS011;63741;42.624;26.276;2022-12-11T05:18:28;16.13;;;4.15;;
74957;SDS011;63741;42.624;26.276;2022-12-11T05:21:05;20.10;;;4.75;;
74957;SDS011;63741;42.624;26.276;2022-12-11T05:23:35;18.75;;;4.93;;
74957;SDS011;63741;42.624;26.276;2022-12-11T05:26:03;12.98;;;4.55;;
74957;SDS011;63741;42.624;26.276;2022-12-11T05:28:33;17.73;;;5.18;;
74957;SDS011;63741;42.624;26.276;2022-12-11T05:31:03;16.35;;;5.88;;
74957;SDS011;63741;42.624;26.276;2022-12-11T05:33:37;25.40;;;6.43;;
74957;SDS011;63741;42.624;26.276;2022-12-11T05:36:04;21.95;;;8.35;;
74957;SDS011;63741;42.624;26.276;2022-12-11T05:38:33;28.45;;;7.18;;
74957;SDS011;63741;42.624;26.276;2022-12-11T05:41:01;19.15;;;6.25;;
74957;SDS011;63741;42.624;26.276;2022-12-11T05:43:30;26.33;;;5.90;;
74957;SDS011;63741;42.624;26.276;2022-12-11T05:46:06;20.02;;;5.50;;
74957;SDS011;63741;42.624;26.276;2022-12-11T05:48:34;21.58;;;5.38;;
74957;SDS011;63741;42.624;26.276;2022-12-11T05:51:02;24.85;;;5.13;;
74957;SDS011;63741;42.624;26.276;2022-12-11T05:53:30;22.77;;;5.75;;
74957;SDS011;63741;42.624;26.276;2022-12-11T05:56:05;24.08;;;4.82;;
74957;SDS011;63741;42.624;26.276;2022-12-11T05:58:33;22.65;;;4.70;;
74957;SDS011;63741;42.624;26.276;2022-12-11T06:01:01;29.15;;;8.77;;
74957;SDS011;63741;42.624;26.276;2022-12-11T06:03:32;27.15;;;5.40;;
74957;SDS011;63741;42.624;26.276;2022-12-11T06:06:02;24.25;;;5.20;;
74957;SDS011;63741;42.624;26.276;2022-12-11T06:08:33;26.05;;;4.90;;
74957;SDS011;63741;42.624;26.276;2022-12-11T06:11:00;20.00;;;4.15;;
74957;SDS011;63741;42.624;26.276;2022-12-11T06:13:28;18.88;;;4.65;;
74957;SDS011;63741;42.624;26.276;2022-12-11T06:15:58;23.48;;;4.78;;
74957;SDS011;63741;42.624;26.276;2022-12-11T06:18:27;23.13;;;4.50;;
74957;SDS011;63741;42.624;26.276;2022-12-11T06:20:54;20.23;;;4.53;;
74957;SDS011;63741;42.624;26.276;2022-12-11T06:23:21;18.95;;;4.35;;
74957;SDS011;63741;42.624;26.276;2022-12-11T06:25:48;25.77;;;4.70;;
74957;SDS011;63741;42.624;26.276;2022-12-11T06:28:14;18.25;;;4.45;;
74957;SDS011;63741;42.624;26.276;2022-12-11T06:30:42;21.98;;;4.88;;
74957;SDS011;63741;42.624;26.276;2022-12-11T06:33:09;21.50;;;4.85;;
74957;SDS011;63741;42.624;26.276;2022-12-11T06:36:30;24.20;;;5.78;;
74957;SDS011;63741;42.624;26.276;2022-12-11T06:38:57;22.40;;;4.38;;
74957;SDS011;63741;42.624;26.276;2022-12-11T06:41:24;24.15;;;4.30;;
74957;SDS011;63741;42.624;26.276;2022-12-11T06:43:51;18.00;;;4.47;;
74957;SDS011;63741;42.624;26.276;2022-12-11T06:46:18;23.73;;;4.13;;
74957;SDS011;63741;42.624;26.276;2022-12-11T06:48:46;21.00;;;4.43;;
74957;SDS011;63741;42.624;26.276;2022-12-11T06:51:14;20.83;;;4.45;;
74957;SDS011;63741;42.624;26.276;2022-12-11T06:53:42;17.45;;;4.28;;
74957;SDS011;63741;42.624;26.276;2022-12-11T06:56:12;23.75;;;4.43;;
74957;SDS011;63741;42.624;26.276;2022-12-11T06:58:40;19.77;;;5.28;;
74957;SDS011;63741;42.624;26.276;2022-12-11T07:01:15;19.38;;;6.18;;
74957;SDS011;63741;42.624;26.276;2022-12-11T07:03:45;22.77;;;6.50;;
74957;SDS011;63741;42.624;26.276;2022-12-11T07:06:13;25.75;;;6.90;;
74957;SDS011;63741;42.624;26.276;2022-12-11T07:08:40;24.67;;;6.53;;
74957;SDS011;63741;42.624;26.276;2022-12-11T07:11:09;18.45;;;4.97;;
74957;SDS011;63741;42.624;26.276;2022-12-11T07:13:37;21.10;;;4.70;;
74957;SDS011;63741;42.624;26.276;2022-12-11T07:16:05;20.95;;;4.40;;
74957;SDS011;63741;42.624;26.276;2022-12-11T07:18:36;20.90;;;4.40;;
74957;SDS011;63741;42.624;26.276;2022-12-11T07:21:05;17.70;;;4.40;;
74957;SDS011;63741;42.624;26.276;2022-12-11T07:23:32;23.42;;;4.85;;
74957;SDS011;63741;42.624;26.276;2022-12-11T07:26:04;21.83;;;6.07;;
74957;SDS011;63741;42.624;26.276;2022-12-11T07:28:33;23.30;;;5.60;;
74957;SDS011;63741;42.624;26.276;2022-12-11T07:31:06;28.55;;;9.65;;
74957;SDS011;63741;42.624;26.276;2022-12-11T07:33:35;22.40;;;5.15;;
74957;SDS011;63741;42.624;26.276;2022-12-11T07:36:03;22.42;;;5.10;;
74957;SDS011;63741;42.624;26.276;2022-12-11T07:38:31;20.85;;;4.72;;
74957;SDS011;63741;42.624;26.276;2022-12-11T07:41:05;26.77;;;7.47;;
74957;SDS011;63741;42.624;26.276;2022-12-11T07:43:34;26.05;;;9.05;;
74957;SDS011;63741;42.624;26.276;2022-12-11T07:46:02;29.98;;;11.27;;
74957;SDS011;63741;42.624;26.276;2022-12-11T07:48:31;33.58;;;12.07;;
74957;SDS011;63741;42.624;26.276;2022-12-11T07:51:08;35.65;;;11.05;;
74957;SDS011;63741;42.624;26.276;2022-12-11T07:53:37;21.48;;;5.97;;
74957;SDS011;63741;42.624;26.276;2022-12-11T07:56:04;16.83;;;3.90;;
74957;SDS011;63741;42.624;26.276;2022-12-11T07:58:32;19.77;;;4.07;;
74957;SDS011;63741;42.624;26.276;2022-12-11T08:00:59;27.50;;;8.68;;
74957;SDS011;63741;42.624;26.276;2022-12-11T08:03:26;32.72;;;8.65;;
74957;SDS011;63741;42.624;26.276;2022-12-11T08:05:53;24.88;;;9.25;;
74957;SDS011;63741;42.624;26.276;2022-12-11T08:08:20;25.30;;;7.72;;
74957;SDS011;63741;42.624;26.276;2022-12-11T08:10:47;21.15;;;5.55;;
74957;SDS011;63741;42.624;26.276;2022-12-11T08:13:14;18.77;;;4.53;;
74957;SDS011;63741;42.624;26.276;2022-12-11T08:15:41;19.70;;;4.93;;
74957;SDS011;63741;42.624;26.276;2022-12-11T08:18:08;13.73;;;3.50;;
74957;SDS011;63741;42.624;26.276;2022-12-11T08:20:36;18.75;;;3.88;;
74957;SDS011;63741;42.624;26.276;2022-12-11T08:23:04;14.20;;;2.97;;
74957;SDS011;63741;42.624;26.276;2022-12-11T08:25:31;14.05;;;2.83;;
74957;SDS011;63741;42.624;26.276;2022-12-11T08:27:58;13.13;;;2.80;;
74957;SDS011;63741;42.624;26.276;2022-12-11T08:30:25;15.07;;;2.63;;
74957;SDS011;63741;42.624;26.276;2022-12-11T08:32:52;10.50;;;2.70;;
74957;SDS011;63741;42.624;26.276;2022-12-11T08:35:19;17.30;;;3.55;;
74957;SDS011;63741;42.624;26.276;2022-12-11T08:37:46;14.77;;;2.65;;
74957;SDS011;63741;42.624;26.276;2022-12-11T08:40:12;15.20;;;2.95;;
74957;SDS011;63741;42.624;26.276;2022-12-11T08:42:39;15.30;;;3.05;;
74957;SDS011;63741;42.624;26.276;2022-12-11T08:45:06;15.85;;;3.60;;
74957;SDS011;63741;42.624;26.276;2022-12-11T08:47:35;44.95;;;5.43;;
74957;SDS011;63741;42.624;26.276;2022-12-11T08:50:02;21.67;;;3.47;;
74957;SDS011;63741;42.624;26.276;2022-12-11T08:52:29;19.52;;;3.05;;
74957;SDS011;63741;42.624;26.276;2022-12-11T08:54:59;16.10;;;3.00;;
74957;SDS011;63741;42.624;26.276;2022-12-11T08:57:26;16.80;;;4.53;;
74957;SDS011;63741;42.624;26.276;2022-12-11T08:59:54;21.45;;;7.38;;
74957;SDS011;63741;42.624;26.276;2022-12-11T09:02:21;13.93;;;2.92;;
74957;SDS011;63741;42.624;26.276;2022-12-11T09:04:48;15.75;;;3.15;;
74957;SDS011;63741;42.624;26.276;2022-12-11T09:07:15;17.17;;;3.08;;
74957;SDS011;63741;42.624;26.276;2022-12-11T09:09:41;19.10;;;5.55;;
74957;SDS011;63741;42.624;26.276;2022-12-11T09:12:08;21.02;;;4.38;;
74957;SDS011;63741;42.624;26.276;2022-12-11T09:14:35;17.10;;;3.33;;
74957;SDS011;63741;42.624;26.276;2022-12-11T09:17:02;17.95;;;3.35;;
74957;SDS011;63741;42.624;26.276;2022-12-11T09:19:30;16.30;;;2.85;;
74957;SDS011;63741;42.624;26.276;2022-12-11T09:21:58;17.35;;;3.33;;
74957;SDS011;63741;42.624;26.276;2022-12-11T09:24:24;14.98;;;3.30;;
74957;SDS011;63741;42.624;26.276;2022-12-11T09:26:51;15.50;;;2.78;;
74957;SDS011;63741;42.624;26.276;2022-12-11T09:29:19;18.10;;;3.78;;
74957;SDS011;63741;42.624;26.276;2022-12-11T09:31:46;15.93;;;3.78;;
74957;SDS011;63741;42.624;26.276;2022-12-11T09:34:14;17.25;;;3.92;;
74957;SDS011;63741;42.624;26.276;2022-12-11T09:36:41;15.25;;;4.10;;
74957;SDS011;63741;42.624;26.276;2022-12-11T09:39:10;12.60;;;3.45;;
74957;SDS011;63741;42.624;26.276;2022-12-11T09:41:46;19.13;;;4.07;;
74957;SDS011;63741;42.624;26.276;2022-12-11T09:44:20;18.92;;;3.63;;
74957;SDS011;63741;42.624;26.276;2022-12-11T09:46:57;19.48;;;4.10;;
74957;SDS011;63741;42.624;26.276;2022-12-11T09:50:01;21.23;;;6.53;;
74957;SDS011;63741;42.624;26.276;2022-12-11T09:55:24;15.60;;;4.00;;
74957;SDS011;63741;42.624;26.276;2022-12-11T10:05:54;15.45;;;3.90;;
74957;SDS011;63741;42.624;26.276;2022-12-11T10:17:12;12.30;;;3.55;;
74957;SDS011;63741;42.624;26.276;2022-12-11T10:19:41;20.10;;;4.90;;
74957;SDS011;63741;42.624;26.276;2022-12-11T10:22:13;11.05;;;2.55;;
74957;SDS011;63741;42.624;26.276;2022-12-11T10:24:56;9.10;;;2.50;;
74957;SDS011;63741;42.624;26.276;2022-12-11T10:27:41;19.50;;;2.58;;
74957;SDS011;63741;42.624;26.276;2022-12-11T10:30:20;13.35;;;2.33;;
74957;SDS011;63741;42.624;26.276;2022-12-11T10:35:19;15.57;;;2.70;;
74957;SDS011;63741;42.624;26.276;2022-12-11T10:37:50;12.02;;;1.95;;
74957;SDS011;63741;42.624;26.276;2022-12-11T10:40:21;13.73;;;2.65;;
74957;SDS011;63741;42.624;26.276;2022-12-11T10:42:51;17.95;;;2.70;;
74957;SDS011;63741;42.624;26.276;2022-12-11T10:45:20;22.08;;;4.00;;
74957;SDS011;63741;42.624;26.276;2022-12-11T10:47:47;20.35;;;3.33;;
74957;SDS011;63741;42.624;26.276;2022-12-11T10:50:21;14.38;;;2.80;;
74957;SDS011;63741;42.624;26.276;2022-12-11T10:52:50;16.52;;;2.55;;
74957;SDS011;63741;42.624;26.276;2022-12-11T10:55:26;14.90;;;2.25;;
74957;SDS011;63741;42.624;26.276;2022-12-11T10:57:57;16.58;;;2.97;;
74957;SDS011;63741;42.624;26.276;2022-12-11T11:00:31;16.65;;;2.47;;
74957;SDS011;63741;42.624;26.276;2022-12-11T11:03:01;15.50;;;2.67;;
74957;SDS011;63741;42.624;26.276;2022-12-11T11:05:33;14.02;;;2.20;;
74957;SDS011;63741;42.624;26.276;2022-12-11T11:08:20;13.98;;;2.22;;
74957;SDS011;63741;42.624;26.276;2022-12-11T11:13:23;14.60;;;2.83;;
74957;SDS011;63741;42.624;26.276;2022-12-11T11:16:25;16.60;;;2.88;;
74957;SDS011;63741;42.624;26.276;2022-12-11T11:18:53;15.10;;;2.22;;
74957;SDS011;63741;42.624;26.276;2022-12-11T11:21:22;13.80;;;2.78;;
74957;SDS011;63741;42.624;26.276;2022-12-11T11:23:52;16.40;;;3.00;;
74957;SDS011;63741;42.624;26.276;2022-12-11T11:26:20;12.07;;;2.35;;
74957;SDS011;63741;42.624;26.276;2022-12-11T11:29:12;15.63;;;2.30;;
74957;SDS011;63741;42.624;26.276;2022-12-11T11:31:51;12.10;;;2.05;;
74957;SDS011;63741;42.624;26.276;2022-12-11T11:34:18;8.90;;;2.20;;
74957;SDS011;63741;42.624;26.276;2022-12-11T11:36:55;12.65;;;2.25;;
74957;SDS011;63741;42.624;26.276;2022-12-11T11:44:30;12.93;;;2.40;;
74957;SDS011;63741;42.624;26.276;2022-12-11T11:47:14;10.65;;;1.73;;
74957;SDS011;63741;42.624;26.276;2022-12-11T11:50:02;11.57;;;2.00;;
74957;SDS011;63741;42.624;26.276;2022-12-11T11:52:38;10.95;;;1.88;;
74957;SDS011;63741;42.624;26.276;2022-12-11T12:00:28;11.07;;;1.95;;
74957;SDS011;63741;42.624;26.276;2022-12-11T12:03:00;17.17;;;3.17;;
74957;SDS011;63741;42.624;26.276;2022-12-11T12:05:34;18.02;;;2.25;;
74957;SDS011;63741;42.624;26.276;2022-12-11T12:13:58;12.15;;;2.70;;
74957;SDS011;63741;42.624;26.276;2022-12-11T12:45:48;18.45;;;3.67;;
74957;SDS011;63741;42.624;26.276;2022-12-11T12:48:24;20.60;;;3.45;;
74957;SDS011;63741;42.624;26.276;2022-12-11T12:50:52;18.08;;;3.10;;
74957;SDS011;63741;42.624;26.276;2022-12-11T12:53:23;21.20;;;3.90;;
74957;SDS011;63741;42.624;26.276;2022-12-11T12:55:53;17.05;;;3.65;;
74957;SDS011;63741;42.624;26.276;2022-12-11T12:58:39;11.23;;;2.50;;
74957;SDS011;63741;42.624;26.276;2022-12-11T13:01:18;11.65;;;2.38;;
74957;SDS011;63741;42.624;26.276;2022-12-11T13:03:54;23.55;;;2.53;;
74957;SDS011;63741;42.624;26.276;2022-12-11T13:09:16;19.00;;;3.40;;
74957;SDS011;63741;42.624;26.276;2022-12-11T13:11:44;17.55;;;2.85;;
74957;SDS011;63741;42.624;26.276;2022-12-11T13:16:43;17.13;;;2.67;;
74957;SDS011;63741;42.624;26.276;2022-12-11T13:19:15;18.48;;;2.80;;
74957;SDS011;63741;42.624;26.276;2022-12-11T13:24:28;20.70;;;3.78;;
74957;SDS011;63741;42.624;26.276;2022-12-11T13:27:07;19.52;;;4.13;;
74957;SDS011;63741;42.624;26.276;2022-12-11T13:29:39;19.60;;;4.03;;
74957;SDS011;63741;42.624;26.276;2022-12-11T13:34:50;19.85;;;3.08;;
74957;SDS011;63741;42.624;26.276;2022-12-11T13:37:25;19.90;;;3.03;;
74957;SDS011;63741;42.624;26.276;2022-12-11T13:39:57;20.33;;;3.70;;
74957;SDS011;63741;42.624;26.276;2022-12-11T13:45:01;17.23;;;3.15;;
74957;SDS011;63741;42.624;26.276;2022-12-11T13:47:30;20.05;;;3.80;;
74957;SDS011;63741;42.624;26.276;2022-12-11T13:50:10;17.10;;;3.22;;
74957;SDS011;63741;42.624;26.276;2022-12-11T13:52:52;22.17;;;3.75;;
74957;SDS011;63741;42.624;26.276;2022-12-11T13:55:24;20.05;;;4.00;;
74957;SDS011;63741;42.624;26.276;2022-12-11T13:57:53;14.43;;;2.92;;
74957;SDS011;63741;42.624;26.276;2022-12-11T14:00:21;20.58;;;4.00;;
74957;SDS011;63741;42.624;26.276;2022-12-11T14:02:59;24.30;;;4.05;;
74957;SDS011;63741;42.624;26.276;2022-12-11T14:05:28;30.42;;;3.45;;
74957;SDS011;63741;42.624;26.276;2022-12-11T14:07:56;23.58;;;2.92;;
74957;SDS011;63741;42.624;26.276;2022-12-11T14:10:28;15.35;;;2.85;;
74957;SDS011;63741;42.624;26.276;2022-12-11T14:15:28;22.77;;;2.90;;
74957;SDS011;63741;42.624;26.276;2022-12-11T14:17:58;17.13;;;3.00;;
74957;SDS011;63741;42.624;26.276;2022-12-11T14:20:30;23.77;;;2.70;;
74957;SDS011;63741;42.624;26.276;2022-12-11T14:25:33;19.05;;;3.15;;
74957;SDS011;63741;42.624;26.276;2022-12-11T14:28:00;20.30;;;3.15;;
74957;SDS011;63741;42.624;26.276;2022-12-11T14:30:28;25.38;;;3.47;;
74957;SDS011;63741;42.624;26.276;2022-12-11T14:32:58;16.60;;;2.70;;
74957;SDS011;63741;42.624;26.276;2022-12-11T14:35:29;15.77;;;2.20;;
74957;SDS011;63741;42.624;26.276;2022-12-11T14:38:06;17.65;;;2.90;;
74957;SDS011;63741;42.624;26.276;2022-12-11T14:40:42;23.25;;;4.97;;
74957;SDS011;63741;42.624;26.276;2022-12-11T14:43:20;22.58;;;4.32;;
74957;SDS011;63741;42.624;26.276;2022-12-11T14:46:09;31.08;;;7.07;;
74957;SDS011;63741;42.624;26.276;2022-12-11T14:48:44;41.05;;;13.95;;
74957;SDS011;63741;42.624;26.276;2022-12-11T14:51:27;28.27;;;5.57;;
74957;SDS011;63741;42.624;26.276;2022-12-11T14:54:00;21.50;;;5.40;;
74957;SDS011;63741;42.624;26.276;2022-12-11T14:56:29;17.50;;;3.97;;
74957;SDS011;63741;42.624;26.276;2022-12-11T14:58:59;23.77;;;5.95;;
74957;SDS011;63741;42.624;26.276;2022-12-11T15:01:30;17.17;;;4.78;;
74957;SDS011;63741;42.624;26.276;2022-12-11T15:06:45;25.10;;;8.23;;
74957;SDS011;63741;42.624;26.276;2022-12-11T15:11:43;68.32;;;23.60;;
74957;SDS011;63741;42.624;26.276;2022-12-11T15:14:11;78.72;;;28.92;;
74957;SDS011;63741;42.624;26.276;2022-12-11T15:16:39;14.18;;;2.88;;
74957;SDS011;63741;42.624;26.276;2022-12-11T15:19:15;14.88;;;3.33;;
74957;SDS011;63741;42.624;26.276;2022-12-11T15:21:46;18.75;;;3.45;;
74957;SDS011;63741;42.624;26.276;2022-12-11T15:27:52;14.75;;;3.20;;
74957;SDS011;63741;42.624;26.276;2022-12-11T15:35:23;12.68;;;1.75;;
74957;SDS011;63741;42.624;26.276;2022-12-11T15:37:52;12.10;;;1.98;;
74957;SDS011;63741;42.624;26.276;2022-12-11T15:40:21;10.80;;;1.70;;
74957;SDS011;63741;42.624;26.276;2022-12-11T15:42:48;9.85;;;2.10;;
74957;SDS011;63741;42.624;26.276;2022-12-11T15:45:17;12.20;;;1.80;;
74957;SDS011;63741;42.624;26.276;2022-12-11T15:47:47;19.00;;;4.30;;
74957;SDS011;63741;42.624;26.276;2022-12-11T15:50:21;11.68;;;2.00;;
74957;SDS011;63741;42.624;26.276;2022-12-11T15:52:50;11.25;;;1.80;;
74957;SDS011;63741;42.624;26.276;2022-12-11T15:55:19;11.63;;;2.03;;
74957;SDS011;63741;42.624;26.276;2022-12-11T15:57:48;18.23;;;2.33;;
74957;SDS011;63741;42.624;26.276;2022-12-11T16:00:18;16.65;;;2.10;;
74957;SDS011;63741;42.624;26.276;2022-12-11T16:02:46;12.60;;;2.08;;
74957;SDS011;63741;42.624;26.276;2022-12-11T16:05:13;15.35;;;2.10;;
74957;SDS011;63741;42.624;26.276;2022-12-11T16:07:41;10.63;;;2.20;;
74957;SDS011;63741;42.624;26.276;2022-12-11T16:10:11;14.85;;;1.85;;
74957;SDS011;63741;42.624;26.276;2022-12-11T16:12:40;10.88;;;2.08;;
74957;SDS011;63741;42.624;26.276;2022-12-11T16:15:09;11.05;;;2.47;;
74957;SDS011;63741;42.624;26.276;2022-12-11T16:17:48;15.30;;;2.42;;
74957;SDS011;63741;42.624;26.276;2022-12-11T16:20:15;11.88;;;2.22;;
74957;SDS011;63741;42.624;26.276;2022-12-11T16:22:43;10.77;;;1.73;;
74957;SDS011;63741;42.624;26.276;2022-12-11T16:25:10;14.57;;;1.90;;
74957;SDS011;63741;42.624;26.276;2022-12-11T16:27:37;11.85;;;2.25;;
74957;SDS011;63741;42.624;26.276;2022-12-11T16:30:04;9.80;;;1.60;;
74957;SDS011;63741;42.624;26.276;2022-12-11T16:32:32;13.32;;;1.92;;
74957;SDS011;63741;42.624;26.276;2022-12-11T16:34:59;12.60;;;1.60;;
74957;SDS011;63741;42.624;26.276;2022-12-11T16:37:26;11.77;;;1.75;;
74957;SDS011;63741;42.624;26.276;2022-12-11T16:39:53;15.95;;;2.10;;
74957;SDS011;63741;42.624;26.276;2022-12-11T16:42:20;12.07;;;2.03;;
74957;SDS011;63741;42.624;26.276;2022-12-11T16:44:47;15.63;;;2.20;;
74957;SDS011;63741;42.624;26.276;2022-12-11T16:47:14;9.95;;;1.77;;
74957;SDS011;63741;42.624;26.276;2022-12-11T16:49:41;9.80;;;1.48;;